Time;durP1;ratioP1;P1;durP2;ratioP2;P2;SDS_P1;SDS_P2;PMS_P1;PMS_P2;Temp;Humidity;BMP_temperature;BMP_pressure;BME280_temperature;BME280_humidity;BME280_pressure;Samples;Min_cycle;Max_cycle;Signal;HPM_P1;HPM_P2
2022/06/08 00:00:03;;;;;;;20.23;8.68;;;;;;;;;;5009505;28;20081;-64
2022/06/08 00:02:30;;;;;;;17.85;8.15;;;;;;;;;;5011022;28;20501;-64
2022/06/08 00:04:56;;;;;;;18.27;8.98;;;;;;;;;;5011264;28;20045;-63
2022/06/08 00:07:22;;;;;;;20.80;8.45;;;;;;;;;;5010807;28;20048;-63
2022/06/08 00:09:49;;;;;;;19.00;9.60;;;;;;;;;;5010737;28;20438;-63
2022/06/08 00:12:15;;;;;;;21.90;9.23;;;;;;;;;;5011035;28;20057;-63
2022/06/08 00:14:41;;;;;;;20.55;8.85;;;;;;;;;;5009486;28;20069;-63
2022/06/08 00:17:07;;;;;;;21.73;8.77;;;;;;;;;;5009609;28;20425;-63
2022/06/08 00:19:34;;;;;;;23.75;8.48;;;;;;;;;;5010810;28;20041;-63
2022/06/08 00:21:59;;;;;;;;;;;;;;;;;;5011473;28;20050;-63
2022/06/08 00:24:26;;;;;;;19.45;8.32;;;;;;;;;;5010858;28;20357;-63
2022/06/08 00:26:52;;;;;;;23.40;8.68;;;;;;;;;;5010672;28;20041;-63
2022/06/08 00:29:18;;;;;;;20.80;8.88;;;;;;;;;;5010720;28;20390;-64
2022/06/08 00:31:44;;;;;;;;;;;;;;;;;;5010850;28;20435;-64
2022/06/08 00:34:10;;;;;;;18.50;8.30;;;;;;;;;;5010624;28;19955;-63
2022/06/08 00:36:36;;;;;;;18.30;8.85;;;;;;;;;;5010694;28;20046;-64
2022/06/08 00:39:02;;;;;;;22.15;9.05;;;;;;;;;;5010260;28;20490;-63
2022/06/08 00:41:35;;;;;;;18.27;8.60;;;;;;;;;;5010536;28;20371;-63
2022/06/08 00:44:02;;;;;;;16.58;8.52;;;;;;;;;;5010656;28;20042;-64
2022/06/08 00:46:29;;;;;;;21.08;9.07;;;;;;;;;;5010074;28;20141;-63
2022/06/08 00:48:57;;;;;;;19.40;8.35;;;;;;;;;;4973169;28;1094109;-64
2022/06/08 00:51:23;;;;;;;17.63;8.77;;;;;;;;;;5009693;28;20324;-63
2022/06/08 00:53:53;;;;;;;15.60;8.68;;;;;;;;;;5011305;28;20394;-63
2022/06/08 00:56:21;;;;;;;16.30;9.18;;;;;;;;;;5011299;28;20474;-63
2022/06/08 00:58:47;;;;;;;19.30;9.13;;;;;;;;;;5011197;28;20104;-63
2022/06/08 01:01:13;;;;;;;16.98;9.45;;;;;;;;;;5009720;28;20053;-63
2022/06/08 01:03:39;;;;;;;21.50;9.45;;;;;;;;;;5011101;28;20068;-63
2022/06/08 01:06:05;;;;;;;;;;;;;;;;;;5010438;28;20042;-63
2022/06/08 01:08:45;;;;;;;22.45;9.55;;;;;;;;;;5009828;28;19975;-63
2022/06/08 01:11:16;;;;;;;23.20;10.00;;;;;;;;;;5010660;28;20145;-63
2022/06/08 01:13:44;;;;;;;22.70;9.43;;;;;;;;;;5011158;28;20056;-63
2022/06/08 01:16:11;;;;;;;22.73;10.13;;;;;;;;;;5009907;28;20061;-64
2022/06/08 01:18:38;;;;;;;22.10;9.70;;;;;;;;;;5011006;28;20062;-63
2022/06/08 01:21:36;;;;;;;19.45;9.77;;;;;;;;;;5011040;28;20045;-63
2022/06/08 01:24:04;;;;;;;22.55;9.52;;;;;;;;;;5011089;28;20049;-63
2022/06/08 01:26:54;;;;;;;18.13;9.30;;;;;;;;;;5009585;28;20068;-63
2022/06/08 01:29:28;;;;;;;18.83;9.32;;;;;;;;;;5010849;28;20104;-63
2022/06/08 01:32:08;;;;;;;16.98;9.10;;;;;;;;;;5011137;28;20060;-63
2022/06/08 01:34:46;;;;;;;20.40;9.35;;;;;;;;;;5011045;28;20112;-63
2022/06/08 01:37:12;;;;;;;23.48;9.38;;;;;;;;;;5010904;28;20428;-64
2022/06/08 01:39:54;;;;;;;19.55;9.48;;;;;;;;;;5010803;28;20041;-63
2022/06/08 01:42:34;;;;;;;20.00;9.32;;;;;;;;;;5010614;28;20056;-63
2022/06/08 01:47:57;;;;;;;18.55;8.73;;;;;;;;;;5010455;28;20137;-63
2022/06/08 01:50:33;;;;;;;18.10;9.90;;;;;;;;;;5009045;28;20087;-63
2022/06/08 01:52:59;;;;;;;19.73;9.43;;;;;;;;;;5010689;28;20054;-64
2022/06/08 01:55:25;;;;;;;17.40;9.00;;;;;;;;;;5010291;28;20094;-63
2022/06/08 01:57:57;;;;;;;17.25;9.57;;;;;;;;;;5010534;28;20080;-63
2022/06/08 02:00:38;;;;;;;19.38;9.20;;;;;;;;;;5010137;28;20072;-62
2022/06/08 02:03:12;;;;;;;20.50;9.98;;;;;;;;;;5010429;28;20103;-63
2022/06/08 02:05:44;;;;;;;17.38;9.02;;;;;;;;;;5010063;28;20054;-63
2022/06/08 02:08:19;;;;;;;20.13;8.60;;;;;;;;;;5010187;28;20098;-63
2022/06/08 02:11:12;;;;;;;18.60;9.35;;;;;;;;;;5010013;28;20117;-63
2022/06/08 02:13:44;;;;;;;20.55;9.80;;;;;;;;;;5010164;28;20112;-63
2022/06/08 02:16:27;;;;;;;24.27;12.25;;;;;;;;;;5010080;28;20132;-64
2022/06/08 02:18:56;;;;;;;23.58;12.38;;;;;;;;;;5008259;28;20050;-63
2022/06/08 02:21:33;;;;;;;31.13;15.77;;;;;;;;;;5009805;28;20041;-64
2022/06/08 02:24:04;;;;;;;33.22;18.50;;;;;;;;;;5010027;28;20351;-63
2022/06/08 02:26:34;;;;;;;35.53;16.98;;;;;;;;;;5009753;28;20432;-63
2022/06/08 02:29:03;;;;;;;33.60;17.75;;;;;;;;;;5009242;28;20542;-63
2022/06/08 02:31:38;;;;;;;30.33;17.17;;;;;;;;;;5008601;28;20046;-63
2022/06/08 02:36:55;;;;;;;29.88;16.73;;;;;;;;;;5009974;28;20133;-63
2022/06/08 02:39:28;;;;;;;27.02;15.27;;;;;;;;;;5010008;28;20339;-63
2022/06/08 02:41:56;;;;;;;30.42;15.25;;;;;;;;;;5009901;28;20147;-63
2022/06/08 02:44:27;;;;;;;27.25;13.27;;;;;;;;;;5010105;28;20065;-63
2022/06/08 02:47:11;;;;;;;23.98;13.23;;;;;;;;;;5009634;28;20128;-63
2022/06/08 02:49:38;;;;;;;25.67;13.02;;;;;;;;;;5009563;28;20045;-63
2022/06/08 02:52:04;;;;;;;;;;;;;;;;;;5010158;28;20060;-63
2022/06/08 02:54:30;;;;;;;23.80;12.50;;;;;;;;;;5009676;28;19947;-63
2022/06/08 02:57:06;;;;;;;21.80;11.25;;;;;;;;;;5009778;28;20054;-64
2022/06/08 02:59:32;;;;;;;22.73;12.13;;;;;;;;;;5009663;28;20183;-63
2022/06/08 03:02:04;;;;;;;23.75;12.52;;;;;;;;;;5009328;28;20529;-63
2022/06/08 03:04:36;;;;;;;21.58;12.55;;;;;;;;;;5009447;28;20060;-63
2022/06/08 03:07:08;;;;;;;21.27;12.90;;;;;;;;;;5009231;28;20097;-63
2022/06/08 03:09:35;;;;;;;23.67;13.23;;;;;;;;;;5009204;28;20049;-63
2022/06/08 03:12:01;;;;;;;;;;;;;;;;;;5008477;28;20132;-63
2022/06/08 03:14:28;;;;;;;23.05;12.90;;;;;;;;;;5007719;28;20060;-64
2022/06/08 03:16:59;;;;;;;22.13;13.07;;;;;;;;;;5008864;28;20207;-64
2022/06/08 03:19:26;;;;;;;23.85;13.27;;;;;;;;;;5008791;28;20427;-63
2022/06/08 03:21:54;;;;;;;26.25;12.45;;;;;;;;;;5008846;28;20046;-63
2022/06/08 03:24:21;;;;;;;28.00;14.73;;;;;;;;;;5008141;28;20061;-64
2022/06/08 03:26:47;;;;;;;;;;;;;;;;;;5008704;28;20140;-63
2022/06/08 03:29:13;;;;;;;23.35;13.50;;;;;;;;;;5008191;28;20148;-64
2022/06/08 03:31:39;;;;;;;26.08;14.00;;;;;;;;;;5006861;28;20343;-63
2022/06/08 03:34:05;;;;;;;30.45;13.73;;;;;;;;;;5010486;28;20390;-64
2022/06/08 03:36:31;;;;;;;26.48;13.70;;;;;;;;;;5011824;28;20066;-64
2022/06/08 03:38:57;;;;;;;24.45;13.35;;;;;;;;;;5011766;28;20065;-65
2022/06/08 03:41:23;;;;;;;26.30;13.82;;;;;;;;;;5011699;28;20061;-64
2022/06/08 03:43:49;;;;;;;26.40;14.75;;;;;;;;;;5011366;28;20128;-63
2022/06/08 03:46:16;;;;;;;26.35;14.90;;;;;;;;;;5011266;28;20137;-64
2022/06/08 03:48:44;;;;;;;25.17;15.07;;;;;;;;;;5011414;28;20064;-63
2022/06/08 03:51:12;;;;;;;26.20;14.85;;;;;;;;;;5011568;28;20064;-64
2022/06/08 03:53:41;;;;;;;25.33;15.35;;;;;;;;;;5010909;28;20052;-63
2022/06/08 03:56:08;;;;;;;27.35;16.00;;;;;;;;;;5011027;28;20508;-64
2022/06/08 03:58:34;;;;;;;29.08;16.55;;;;;;;;;;5010963;28;20485;-64
2022/06/08 04:01:01;;;;;;;28.85;15.38;;;;;;;;;;5009431;28;20072;-63
2022/06/08 04:03:27;;;;;;;29.50;15.73;;;;;;;;;;5009853;28;20049;-63
2022/06/08 04:05:53;;;;;;;28.75;15.95;;;;;;;;;;5009412;28;20129;-63
2022/06/08 04:08:19;;;;;;;33.33;17.15;;;;;;;;;;5009343;28;20069;-63
2022/06/08 04:10:45;;;;;;;25.80;15.18;;;;;;;;;;5010758;28;20042;-63
2022/06/08 04:13:11;;;;;;;28.58;15.57;;;;;;;;;;5010748;28;20038;-64
2022/06/08 04:15:44;;;;;;;30.92;14.88;;;;;;;;;;5010874;28;20072;-63
2022/06/08 04:18:15;;;;;;;27.52;14.38;;;;;;;;;;5011081;28;20085;-63
2022/06/08 04:20:42;;;;;;;29.58;15.70;;;;;;;;;;5010870;28;20354;-63
2022/06/08 04:23:08;;;;;;;27.35;15.70;;;;;;;;;;5011070;28;20046;-62
2022/06/08 04:25:34;;;;;;;;;;;;;;;;;;5011272;28;20046;-63
2022/06/08 04:28:00;;;;;;;25.63;15.52;;;;;;;;;;5010672;28;19952;-63
2022/06/08 04:30:26;;;;;;;28.30;15.32;;;;;;;;;;5010890;28;20125;-63
2022/06/08 04:32:53;;;;;;;28.92;15.80;;;;;;;;;;5010464;28;20453;-63
2022/06/08 04:35:19;;;;;;;27.58;16.15;;;;;;;;;;5011122;28;20458;-63
2022/06/08 04:37:45;;;;;;;;;;;;;;;;;;5011190;28;20164;-63
2022/06/08 04:40:12;;;;;;;27.23;15.43;;;;;;;;;;5011233;28;20330;-63
2022/06/08 04:42:39;;;;;;;27.42;16.25;;;;;;;;;;5010391;28;20137;-63
2022/06/08 04:45:06;;;;;;;32.92;16.73;;;;;;;;;;5009743;28;20187;-64
2022/06/08 04:47:32;;;;;;;32.83;17.58;;;;;;;;;;5011096;28;20067;-63
2022/06/08 04:49:58;;;;;;;27.83;17.55;;;;;;;;;;5010809;28;20398;-63
2022/06/08 04:52:24;;;;;;;30.08;17.92;;;;;;;;;;5011041;28;20136;-63
2022/06/08 04:54:50;;;;;;;28.92;17.67;;;;;;;;;;5010841;28;20458;-63
2022/06/08 04:57:16;;;;;;;;;;;;;;;;;;5011160;28;20089;-64
2022/06/08 04:59:42;;;;;;;32.63;18.95;;;;;;;;;;5009607;28;19976;-64
2022/06/08 05:02:09;;;;;;;29.17;17.88;;;;;;;;;;5010998;28;20478;-64
2022/06/08 05:04:35;;;;;;;33.03;18.58;;;;;;;;;;5010971;28;20131;-64
2022/06/08 05:07:01;;;;;;;32.25;18.60;;;;;;;;;;5010457;28;20050;-64
2022/06/08 05:09:27;;;;;;;33.92;18.77;;;;;;;;;;5010604;28;20037;-64
2022/06/08 05:11:53;;;;;;;33.80;18.65;;;;;;;;;;5010155;28;20057;-65
2022/06/08 05:14:19;;;;;;;31.83;19.35;;;;;;;;;;5010915;28;20046;-64
2022/06/08 05:16:45;;;;;;;36.90;20.33;;;;;;;;;;5010279;28;20093;-64
2022/06/08 05:19:12;;;;;;;33.35;20.58;;;;;;;;;;5009962;28;20053;-64
2022/06/08 05:21:38;;;;;;;34.90;21.27;;;;;;;;;;5010153;28;20359;-65
2022/06/08 05:24:04;;;;;;;42.75;23.55;;;;;;;;;;5008572;28;20145;-64
2022/06/08 05:26:30;;;;;;;35.78;21.58;;;;;;;;;;5009902;28;20132;-65
2022/06/08 05:28:57;;;;;;;39.38;22.85;;;;;;;;;;5010013;28;20108;-64
2022/06/08 05:31:23;;;;;;;37.22;23.08;;;;;;;;;;5010257;28;20054;-64
2022/06/08 05:33:49;;;;;;;38.85;22.90;;;;;;;;;;5010018;28;20049;-64
2022/06/08 05:36:16;;;;;;;40.35;22.20;;;;;;;;;;5010151;28;20175;-64
2022/06/08 05:38:42;;;;;;;40.60;24.02;;;;;;;;;;5010156;28;20054;-64
2022/06/08 05:41:08;;;;;;;38.47;23.35;;;;;;;;;;5010002;28;20049;-64
2022/06/08 05:43:35;;;;;;;38.65;23.40;;;;;;;;;;5010300;28;20049;-64
2022/06/08 05:46:00;;;;;;;;;;;;;;;;;;5009736;28;20053;-64
2022/06/08 05:48:27;;;;;;;37.25;22.75;;;;;;;;;;5009617;28;20005;-65
2022/06/08 05:50:54;;;;;;;38.67;24.33;;;;;;;;;;5009530;28;20130;-65
2022/06/08 05:53:20;;;;;;;40.15;24.27;;;;;;;;;;5009576;28;20042;-65
2022/06/08 05:55:46;;;;;;;;;;;;;;;;;;5009435;28;20046;-65
2022/06/08 05:58:12;;;;;;;38.17;23.27;;;;;;;;;;5009532;28;20350;-65
2022/06/08 06:00:40;;;;;;;39.70;23.55;;;;;;;;;;5009374;28;20038;-65
2022/06/08 06:03:07;;;;;;;39.92;22.25;;;;;;;;;;5009185;28;20056;-64
2022/06/08 06:05:34;;;;;;;36.22;23.73;;;;;;;;;;5009545;28;20102;-64
2022/06/08 06:08:01;;;;;;;37.22;24.00;;;;;;;;;;5009148;28;20097;-65
2022/06/08 06:10:28;;;;;;;38.03;22.42;;;;;;;;;;5007563;28;20042;-65
2022/06/08 06:12:55;;;;;;;40.60;23.50;;;;;;;;;;5008863;28;20042;-65
2022/06/08 06:15:22;;;;;;;33.30;21.48;;;;;;;;;;5008947;28;20121;-64
2022/06/08 06:17:48;;;;;;;39.90;22.98;;;;;;;;;;5009234;28;20171;-64
2022/06/08 06:20:14;;;;;;;37.65;21.63;;;;;;;;;;5009039;28;20092;-65
2022/06/08 06:22:40;;;;;;;37.45;22.45;;;;;;;;;;5008985;28;20045;-65
2022/06/08 06:25:07;;;;;;;35.15;21.40;;;;;;;;;;5009151;28;20137;-64
2022/06/08 06:27:34;;;;;;;40.65;22.45;;;;;;;;;;5008651;28;20153;-64
2022/06/08 06:30:00;;;;;;;42.50;21.60;;;;;;;;;;5008943;28;20049;-64
2022/06/08 06:32:31;;;;;;;33.45;21.55;;;;;;;;;;5009236;28;20053;-64
2022/06/08 06:34:58;;;;;;;33.75;20.33;;;;;;;;;;5007177;28;20064;-64
2022/06/08 06:37:25;;;;;;;39.15;21.40;;;;;;;;;;5009054;28;20113;-64
2022/06/08 06:39:51;;;;;;;;;;;;;;;;;;5008747;28;20038;-65
2022/06/08 06:42:22;;;;;;;32.22;20.10;;;;;;;;;;5006821;28;20382;-65
2022/06/08 06:44:48;;;;;;;31.73;19.92;;;;;;;;;;5008244;28;20135;-65
2022/06/08 06:47:14;;;;;;;33.72;19.48;;;;;;;;;;5007870;28;20159;-64
2022/06/08 06:49:40;;;;;;;38.20;19.20;;;;;;;;;;5008183;28;20069;-65
2022/06/08 06:52:06;;;;;;;33.65;20.42;;;;;;;;;;5007465;28;20207;-64
2022/06/08 06:54:32;;;;;;;;;;;;;;;;;;5008873;28;20050;-65
2022/06/08 06:56:58;;;;;;;31.83;19.08;;;;;;;;;;5008029;28;19928;-64
2022/06/08 06:59:25;;;;;;;27.40;17.98;;;;;;;;;;5007936;28;20073;-64
2022/06/08 07:01:51;;;;;;;31.27;18.70;;;;;;;;;;5007949;28;20096;-65
2022/06/08 07:04:18;;;;;;;33.40;19.17;;;;;;;;;;5008381;28;20065;-65
2022/06/08 07:06:44;;;;;;;29.58;17.88;;;;;;;;;;5008094;28;20054;-64
2022/06/08 07:09:10;;;;;;;;;;;;;;;;;;5010872;28;20060;-65
2022/06/08 07:11:40;;;;;;;28.80;17.52;;;;;;;;;;5011988;28;19921;-65
2022/06/08 07:14:06;;;;;;;28.00;17.48;;;;;;;;;;5011294;28;20130;-65
2022/06/08 07:16:33;;;;;;;32.65;18.70;;;;;;;;;;5012512;28;20061;-65
2022/06/08 07:18:59;;;;;;;33.10;18.45;;;;;;;;;;5011972;28;20046;-65
2022/06/08 07:21:26;;;;;;;28.10;16.88;;;;;;;;;;5011700;28;20053;-66
2022/06/08 07:23:52;;;;;;;26.20;16.10;;;;;;;;;;5011821;28;20046;-65
2022/06/08 07:26:18;;;;;;;29.38;17.13;;;;;;;;;;5012015;28;20082;-65
2022/06/08 07:28:44;;;;;;;26.80;16.25;;;;;;;;;;5011700;28;20085;-65
2022/06/08 07:31:12;;;;;;;25.27;16.27;;;;;;;;;;5011433;28;20104;-66
2022/06/08 07:33:38;;;;;;;25.77;15.18;;;;;;;;;;5011824;28;20081;-64
2022/06/08 07:36:04;;;;;;;25.17;13.00;;;;;;;;;;5011829;28;20049;-65
2022/06/08 07:38:30;;;;;;;;;;;;;;;;;;5011993;28;20085;-66
2022/06/08 07:40:56;;;;;;;23.83;12.65;;;;;;;;;;5011743;28;20042;-65
2022/06/08 07:43:23;;;;;;;21.77;12.70;;;;;;;;;;5011584;28;20054;-65
2022/06/08 07:45:49;;;;;;;21.85;12.27;;;;;;;;;;5010439;28;20050;-65
2022/06/08 07:51:00;;;;;;;21.52;11.85;;;;;;;;;;5011312;28;20065;-65
2022/06/08 07:53:26;;;;;;;21.20;11.25;;;;;;;;;;5011152;28;20191;-65
2022/06/08 07:55:52;;;;;;;18.80;11.57;;;;;;;;;;5011371;28;20408;-65
2022/06/08 07:58:18;;;;;;;;;;;;;;;;;;5009656;28;20061;-65
2022/06/08 08:00:47;;;;;;;19.48;10.30;;;;;;;;;;5010885;28;19955;-65
2022/06/08 08:03:17;;;;;;;17.83;9.77;;;;;;;;;;5011162;28;20149;-65
2022/06/08 08:05:43;;;;;;;20.40;9.65;;;;;;;;;;5010920;28;20445;-65
2022/06/08 08:08:10;;;;;;;18.40;8.77;;;;;;;;;;5011178;28;20056;-64
2022/06/08 08:10:36;;;;;;;17.25;9.27;;;;;;;;;;5010641;28;20339;-65
2022/06/08 08:13:02;;;;;;;18.55;8.75;;;;;;;;;;5010965;28;20168;-65
2022/06/08 08:15:29;;;;;;;15.32;8.40;;;;;;;;;;5009318;28;20098;-66
2022/06/08 08:17:56;;;;;;;15.73;8.52;;;;;;;;;;5010410;28;20132;-66
2022/06/08 08:20:24;;;;;;;16.95;9.18;;;;;;;;;;5010207;28;20038;-65
2022/06/08 08:22:50;;;;;;;17.58;8.35;;;;;;;;;;5010491;28;20053;-65
2022/06/08 08:25:17;;;;;;;16.38;7.95;;;;;;;;;;5010294;28;20046;-65
2022/06/08 08:27:44;;;;;;;14.70;7.65;;;;;;;;;;5010304;28;20050;-66
2022/06/08 08:30:12;;;;;;;17.60;7.28;;;;;;;;;;5008828;28;20042;-66
2022/06/08 08:32:38;;;;;;;16.08;6.85;;;;;;;;;;5010312;28;20477;-65
2022/06/08 08:35:04;;;;;;;18.10;7.32;;;;;;;;;;5010525;28;20054;-65
2022/06/08 08:37:31;;;;;;;15.60;6.53;;;;;;;;;;5008696;28;20500;-65
2022/06/08 08:39:57;;;;;;;12.00;5.63;;;;;;;;;;5010114;28;20216;-64
2022/06/08 08:42:23;;;;;;;;;;;;;;;;;;5009501;28;20081;-64
2022/06/08 08:44:51;;;;;;;12.63;4.68;;;;;;;;;;5010169;28;20015;-65
2022/06/08 08:47:28;;;;;;;11.88;4.00;;;;;;;;;;5009775;28;20069;-66
2022/06/08 08:49:56;;;;;;;11.57;3.78;;;;;;;;;;5010235;28;20115;-65
2022/06/08 08:52:43;;;;;;;11.73;3.63;;;;;;;;;;5009949;28;20084;-66
2022/06/08 08:55:09;;;;;;;14.55;4.50;;;;;;;;;;5009860;28;20064;-65
2022/06/08 08:57:39;;;;;;;9.98;3.50;;;;;;;;;;5009843;28;20049;-65
2022/06/08 09:00:17;;;;;;;9.57;4.03;;;;;;;;;;5009435;28;20386;-65
2022/06/08 09:05:32;;;;;;;7.90;2.95;;;;;;;;;;5009982;28;20050;-65
2022/06/08 09:07:58;;;;;;;8.05;3.25;;;;;;;;;;5008375;28;20066;-66
2022/06/08 09:10:25;;;;;;;9.93;2.80;;;;;;;;;;5009662;28;20174;-65
2022/06/08 09:12:52;;;;;;;7.65;2.80;;;;;;;;;;5010059;28;20061;-66
2022/06/08 09:15:36;;;;;;;9.35;2.78;;;;;;;;;;5009487;28;20046;-65
2022/06/08 09:18:04;;;;;;;7.85;2.58;;;;;;;;;;5008758;28;20472;-65
2022/06/08 09:20:35;;;;;;;7.95;2.60;;;;;;;;;;5009356;28;20052;-66
2022/06/08 09:23:20;;;;;;;8.98;2.72;;;;;;;;;;5009725;28;20050;-65
2022/06/08 09:25:46;;;;;;;10.07;2.95;;;;;;;;;;5009543;28;20050;-64
2022/06/08 09:28:12;;;;;;;;;;;;;;;;;;5010066;28;20046;-65
2022/06/08 09:30:49;;;;;;;9.02;3.65;;;;;;;;;;5008839;28;19921;-66
2022/06/08 09:33:17;;;;;;;9.18;3.20;;;;;;;;;;5009509;28;20443;-65
2022/06/08 09:35:55;;;;;;;9.40;3.30;;;;;;;;;;5009283;28;20045;-66
2022/06/08 09:38:23;;;;;;;9.40;3.63;;;;;;;;;;5009359;28;20120;-65
2022/06/08 09:40:55;;;;;;;11.48;3.20;;;;;;;;;;5009720;28;20038;-65
2022/06/08 09:43:41;;;;;;;10.27;3.30;;;;;;;;;;5009341;28;20390;-66
2022/06/08 09:46:10;;;;;;;8.05;2.83;;;;;;;;;;5009582;28;20103;-66
2022/06/08 09:51:42;;;;;;;7.68;2.80;;;;;;;;;;5008897;28;20136;-66
2022/06/08 09:54:11;;;;;;;7.88;2.83;;;;;;;;;;5008968;28;20069;-66
2022/06/08 09:56:50;;;;;;;8.43;3.10;;;;;;;;;;5008941;28;20064;-65
2022/06/08 09:59:22;;;;;;;10.38;3.00;;;;;;;;;;5008847;28;20050;-66
2022/06/08 10:01:52;;;;;;;7.13;3.00;;;;;;;;;;5007550;28;20382;-66
2022/06/08 10:04:37;;;;;;;9.13;3.00;;;;;;;;;;5008721;28;20405;-65
2022/06/08 10:07:09;;;;;;;9.98;3.00;;;;;;;;;;5008857;28;20164;-66
2022/06/08 10:09:35;;;;;;;9.18;2.80;;;;;;;;;;5008766;28;20053;-66
2022/06/08 10:12:16;;;;;;;10.10;2.95;;;;;;;;;;5008661;28;20342;-66
2022/06/08 10:15:08;;;;;;;9.75;3.03;;;;;;;;;;5008842;28;20068;-66
2022/06/08 10:17:58;;;;;;;11.35;3.38;;;;;;;;;;5007019;28;20205;-66
2022/06/08 10:20:29;;;;;;;11.80;3.70;;;;;;;;;;5005347;28;20112;-66
2022/06/08 10:22:57;;;;;;;9.15;3.33;;;;;;;;;;5008379;28;20064;-66
2022/06/08 10:25:27;;;;;;;11.52;3.53;;;;;;;;;;5008576;28;20049;-67
2022/06/08 10:27:55;;;;;;;9.77;3.60;;;;;;;;;;5006947;28;20407;-66
2022/06/08 10:30:41;;;;;;;9.45;3.70;;;;;;;;;;5008198;28;20390;-66
2022/06/08 10:33:18;;;;;;;10.10;4.03;;;;;;;;;;5006372;28;20385;-65
2022/06/08 10:35:48;;;;;;;10.68;4.10;;;;;;;;;;5008020;28;20128;-66
2022/06/08 10:38:32;;;;;;;10.57;3.53;;;;;;;;;;5008468;28;20123;-66
2022/06/08 10:43:59;;;;;;;9.73;4.10;;;;;;;;;;5012467;28;20125;-66
2022/06/08 10:46:38;;;;;;;10.55;4.65;;;;;;;;;;5012372;28;20049;-66
2022/06/08 10:49:05;;;;;;;12.50;4.80;;;;;;;;;;5012242;28;20057;-67
2022/06/08 10:51:34;;;;;;;14.02;5.30;;;;;;;;;;5012122;28;20122;-67
2022/06/08 10:56:46;;;;;;;10.23;4.82;;;;;;;;;;5011824;28;20141;-65
2022/06/08 10:59:14;;;;;;;12.05;5.45;;;;;;;;;;5012015;28;20473;-67
2022/06/08 11:01:52;;;;;;;10.80;4.85;;;;;;;;;;5011345;28;20049;-67
2022/06/08 11:04:30;;;;;;;13.38;5.60;;;;;;;;;;5010148;28;20083;-67
2022/06/08 11:06:58;;;;;;;12.25;5.65;;;;;;;;;;5012023;28;20093;-65
2022/06/08 11:09:34;;;;;;;13.02;5.07;;;;;;;;;;5011624;28;20152;-66
2022/06/08 11:12:27;;;;;;;12.27;5.85;;;;;;;;;;5012124;28;20046;-65
2022/06/08 11:14:57;;;;;;;11.85;4.97;;;;;;;;;;5008929;28;20074;-65
2022/06/08 11:17:26;;;;;;;12.38;4.97;;;;;;;;;;5011664;28;20099;-69
2022/06/08 11:19:54;;;;;;;11.50;4.78;;;;;;;;;;5011530;28;20046;-66
2022/06/08 11:22:24;;;;;;;12.25;5.10;;;;;;;;;;5011749;28;20412;-66
2022/06/08 11:24:53;;;;;;;15.30;5.70;;;;;;;;;;5011670;28;20046;-66
2022/06/08 11:27:25;;;;;;;15.98;6.30;;;;;;;;;;5011178;28;20473;-65
2022/06/08 11:29:55;;;;;;;13.10;6.32;;;;;;;;;;5011404;28;20065;-65
2022/06/08 11:32:27;;;;;;;14.40;6.47;;;;;;;;;;5012301;28;20112;-65
2022/06/08 11:35:12;;;;;;;14.90;5.80;;;;;;;;;;5011765;28;20050;-65
2022/06/08 11:37:47;;;;;;;14.10;6.50;;;;;;;;;;5011556;28;20157;-65
2022/06/08 11:40:25;;;;;;;17.35;6.18;;;;;;;;;;5011828;28;20072;-65
2022/06/08 11:42:54;;;;;;;13.35;6.15;;;;;;;;;;5011551;28;20046;-65
2022/06/08 11:45:24;;;;;;;23.00;7.40;;;;;;;;;;5012852;28;20061;-63
2022/06/08 11:47:57;;;;;;;17.58;8.90;;;;;;;;;;5012048;28;20516;-64
2022/06/08 11:50:26;;;;;;;17.50;8.57;;;;;;;;;;5012625;28;20125;-65
2022/06/08 11:53:00;;;;;;;19.83;9.10;;;;;;;;;;5012626;28;20049;-65
2022/06/08 11:55:26;;;;;;;18.50;9.02;;;;;;;;;;5011759;28;20119;-65
2022/06/08 11:58:04;;;;;;;21.33;10.23;;;;;;;;;;5012431;28;20056;-65
2022/06/08 12:00:30;;;;;;;15.77;9.70;;;;;;;;;;5012307;28;20153;-65
2022/06/08 12:02:59;;;;;;;23.90;9.77;;;;;;;;;;5010552;28;20442;-65
2022/06/08 12:05:28;;;;;;;17.98;9.98;;;;;;;;;;5012256;28;20124;-66
2022/06/08 12:07:59;;;;;;;19.48;11.07;;;;;;;;;;5012039;28;20185;-65
2022/06/08 12:10:27;;;;;;;18.33;10.07;;;;;;;;;;5012509;28;20432;-65
2022/06/08 12:12:54;;;;;;;18.58;9.20;;;;;;;;;;5012273;28;20061;-66
2022/06/08 12:15:33;;;;;;;16.45;9.35;;;;;;;;;;5012293;28;20133;-66
2022/06/08 12:18:19;;;;;;;18.40;10.07;;;;;;;;;;5012059;28;20466;-66
2022/06/08 12:20:45;;;;;;;20.20;11.20;;;;;;;;;;5008009;28;20050;-65
2022/06/08 12:23:11;;;;;;;;;;;;;;;;;;5012840;28;20296;-66
2022/06/08 12:25:37;;;;;;;20.67;10.05;;;;;;;;;;5011325;28;19981;-65
2022/06/08 12:28:03;;;;;;;15.68;8.70;;;;;;;;;;5011289;28;20052;-65
2022/06/08 12:30:29;;;;;;;20.25;9.80;;;;;;;;;;5010692;28;20137;-65
2022/06/08 12:32:58;;;;;;;19.67;9.77;;;;;;;;;;5011812;28;20155;-65
2022/06/08 12:35:27;;;;;;;15.85;8.45;;;;;;;;;;5011864;28;20474;-65
2022/06/08 12:38:12;;;;;;;17.92;9.43;;;;;;;;;;5011822;28;20081;-65
2022/06/08 12:40:38;;;;;;;20.83;9.57;;;;;;;;;;5011992;28;20486;-64
2022/06/08 12:43:07;;;;;;;18.98;10.32;;;;;;;;;;5011904;28;20136;-64
2022/06/08 12:45:38;;;;;;;21.38;10.98;;;;;;;;;;5011697;28;20130;-63
2022/06/08 12:48:23;;;;;;;20.25;10.13;;;;;;;;;;5012041;28;20085;-65
2022/06/08 12:50:49;;;;;;;20.85;9.55;;;;;;;;;;5012257;28;20060;-62
2022/06/08 12:53:16;;;;;;;;;;;;;;;;;;5012843;28;20050;-64
2022/06/08 12:55:42;;;;;;;13.93;5.80;;;;;;;;;;5012305;28;20296;-63
2022/06/08 12:58:08;;;;;;;12.52;5.28;;;;;;;;;;5012358;28;20108;-63
2022/06/08 13:00:36;;;;;;;12.25;4.88;;;;;;;;;;5012587;28;20422;-63
2022/06/08 13:03:14;;;;;;;10.27;3.42;;;;;;;;;;5011822;28;20343;-63
2022/06/08 13:05:40;;;;;;;11.25;3.83;;;;;;;;;;5012784;28;20145;-63
2022/06/08 13:08:06;;;;;;;;;;;;;;;;;;5013885;28;20390;-63
2022/06/08 13:10:33;;;;;;;14.05;3.70;;;;;;;;;;5012859;28;19933;-63
2022/06/08 13:13:03;;;;;;;12.95;4.60;;;;;;;;;;5013323;28;20397;-64
2022/06/08 13:15:40;;;;;;;12.15;4.43;;;;;;;;;;5013715;28;20100;-63
2022/06/08 13:18:06;;;;;;;11.68;4.65;;;;;;;;;;5013394;28;20046;-63
2022/06/08 13:20:36;;;;;;;12.15;4.75;;;;;;;;;;5013647;28;20057;-64
2022/06/08 13:23:03;;;;;;;12.98;5.53;;;;;;;;;;5013389;28;20143;-64
2022/06/08 13:25:32;;;;;;;14.27;6.53;;;;;;;;;;5012479;28;20393;-64
2022/06/08 13:27:58;;;;;;;13.02;5.97;;;;;;;;;;5012177;28;20449;-64
2022/06/08 13:30:26;;;;;;;16.73;6.38;;;;;;;;;;5012469;28;20056;-64
2022/06/08 13:32:52;;;;;;;15.38;7.43;;;;;;;;;;5012040;28;20049;-64
2022/06/08 13:35:19;;;;;;;16.38;8.10;;;;;;;;;;5013004;28;20054;-64
2022/06/08 13:37:45;;;;;;;20.63;8.15;;;;;;;;;;5012139;28;20042;-64
2022/06/08 13:40:13;;;;;;;17.58;8.45;;;;;;;;;;5012964;28;20106;-64
2022/06/08 13:42:40;;;;;;;16.10;8.50;;;;;;;;;;5012391;28;20065;-64
2022/06/08 13:45:07;;;;;;;17.30;9.48;;;;;;;;;;5011802;28;20081;-64
2022/06/08 13:47:35;;;;;;;26.20;11.18;;;;;;;;;;5011898;28;20466;-63
2022/06/08 13:50:17;;;;;;;19.23;11.00;;;;;;;;;;5011257;28;20101;-63
2022/06/08 13:52:44;;;;;;;20.40;10.88;;;;;;;;;;5011406;28;20041;-64
2022/06/08 13:55:16;;;;;;;23.08;11.85;;;;;;;;;;5011561;28;20053;-64
2022/06/08 13:57:42;;;;;;;19.63;11.90;;;;;;;;;;5010899;28;20129;-64
2022/06/08 14:00:09;;;;;;;21.50;11.98;;;;;;;;;;5010916;28;20073;-64
2022/06/08 14:02:47;;;;;;;21.25;12.02;;;;;;;;;;5010208;28;20308;-64
2022/06/08 14:05:15;;;;;;;25.13;14.32;;;;;;;;;;5009928;28;20050;-65
2022/06/08 14:13:18;;;;;;;25.75;17.60;;;;;;;;;;5010064;28;20069;-65
2022/06/08 14:15:46;;;;;;;26.88;17.58;;;;;;;;;;5009695;28;20362;-65
2022/06/08 14:18:16;;;;;;;31.60;19.38;;;;;;;;;;5009294;28;20530;-65
2022/06/08 14:20:42;;;;;;;31.52;19.40;;;;;;;;;;5010741;28;20126;-71
2022/06/08 14:23:09;;;;;;;30.27;21.40;;;;;;;;;;5009784;28;20050;-65
2022/06/08 14:25:37;;;;;;;26.92;20.25;;;;;;;;;;5009785;28;20050;-65
2022/06/08 14:28:03;;;;;;;51.45;23.60;;;;;;;;;;5008488;28;20064;-65
2022/06/08 14:30:29;;;;;;;33.92;24.23;;;;;;;;;;5009800;28;20434;-65
2022/06/08 14:32:57;;;;;;;35.35;25.27;;;;;;;;;;5009871;28;20042;-66
2022/06/08 14:35:26;;;;;;;35.55;26.08;;;;;;;;;;5012104;28;20049;-65
2022/06/08 14:37:53;;;;;;;32.95;24.85;;;;;;;;;;5010623;28;20112;-65
2022/06/08 14:40:24;;;;;;;33.25;25.63;;;;;;;;;;5008766;28;20461;-65
2022/06/08 14:42:50;;;;;;;29.15;24.00;;;;;;;;;;5009776;28;20089;-64
2022/06/08 14:45:18;;;;;;;37.03;25.70;;;;;;;;;;5009728;28;20049;-65
2022/06/08 14:47:44;;;;;;;32.50;23.42;;;;;;;;;;5008106;28;20072;-65
2022/06/08 14:50:13;;;;;;;35.03;23.77;;;;;;;;;;5010073;28;20178;-65
2022/06/08 14:52:39;;;;;;;35.20;24.50;;;;;;;;;;5009985;28;20104;-65
2022/06/08 14:56:23;;;;;;;33.58;23.73;;;;;;;;;;5009412;28;20425;-65
2022/06/08 14:57:53;;;;;;;30.27;22.20;;;;;;;;;;5009831;28;20403;-65
2022/06/08 15:00:19;;;;;;;32.15;22.40;;;;;;;;;;5009634;28;20149;-65
2022/06/08 15:02:45;;;;;;;;;;;;;;;;;;5009843;28;20057;-64
2022/06/08 15:05:17;;;;;;;28.77;19.83;;;;;;;;;;5009278;28;20357;-65
2022/06/08 15:07:43;;;;;;;27.02;19.08;;;;;;;;;;5009963;28;20134;-65